createdAt,value
2024-05-09T00:00:31.558Z,98529.13
2024-05-09T00:03:25.229Z,98524.48
2024-05-09T00:05:51.748Z,98525.10
2024-05-09T00:08:18.316Z,98524.25
2024-05-09T00:10:44.901Z,98521.45
2024-05-09T00:13:12.033Z,98520.52
2024-05-09T00:15:38.605Z,98514.69
2024-05-09T00:18:06.013Z,98510.95
2024-05-09T00:20:38.244Z,98508.50
2024-05-09T00:23:09.025Z,98511.35
2024-05-09T00:25:37.455Z,98509.73
2024-05-09T00:28:05.302Z,98504.75
2024-05-09T00:30:35.370Z,98503.56
2024-05-09T00:33:05.347Z,98493.15
2024-05-09T00:35:33.508Z,98494.31
2024-05-09T00:38:00.313Z,98493.17
2024-05-09T00:40:38.716Z,98491.65
2024-05-09T00:43:08.449Z,98493.85
2024-05-09T00:45:35.147Z,98495.20
2024-05-09T00:48:04.083Z,98497.06
2024-05-09T00:50:36.456Z,98496.88
2024-05-09T00:53:06.170Z,98502.45
2024-05-09T00:55:38.126Z,98508.70
2024-05-09T00:58:06.908Z,98509.61
2024-05-09T01:00:39.029Z,98510.38
2024-05-09T01:03:09.071Z,98515.10
2024-05-09T01:05:37.993Z,98511.77
2024-05-09T01:08:05.305Z,98514.30
2024-05-09T01:10:34.834Z,98513.77
2024-05-09T01:13:06.587Z,98516.19
2024-05-09T01:15:34.145Z,98520.29
2024-05-09T01:18:07.662Z,98526.02
2024-05-09T01:20:41.262Z,98527.33
2024-05-09T01:23:12.030Z,98526.61
2024-05-09T01:25:39.390Z,98531.31
2024-05-09T01:28:06.775Z,98527.81
2024-05-09T01:30:35.951Z,98522.70
2024-05-09T01:33:06.441Z,98522.86
2024-05-09T01:35:34.847Z,98520.66
2024-05-09T01:38:01.418Z,98523.52
2024-05-09T01:40:36.428Z,98520.13
2024-05-09T01:43:10.543Z,98518.95
2024-05-09T01:45:39.160Z,98519.45
2024-05-09T01:48:06.851Z,98521.54
2024-05-09T01:50:38.970Z,98525.00
2024-05-09T01:53:10.473Z,98518.66
2024-05-09T01:55:37.246Z,98516.46
2024-05-09T01:58:04.231Z,98520.62
2024-05-09T02:00:38.262Z,98518.04
2024-05-09T02:03:15.437Z,98511.70
2024-05-09T02:05:45.937Z,98513.34
2024-05-09T02:08:14.927Z,98513.98
2024-05-09T02:10:42.398Z,98513.39
2024-05-09T02:13:09.201Z,98514.52
2024-05-09T02:15:35.653Z,98507.46
2024-05-09T02:18:02.397Z,98508.27
2024-05-09T02:20:35.547Z,98509.55
2024-05-09T02:23:04.755Z,98506.56
2024-05-09T02:25:31.861Z,98511.56
2024-05-09T02:27:58.405Z,98513.52
2024-05-09T02:30:34.921Z,98508.80
2024-05-09T02:33:06.319Z,98513.22
2024-05-09T02:35:33.270Z,98514.13
2024-05-09T02:38:00.048Z,98512.49
2024-05-09T02:40:35.552Z,98509.54
2024-05-09T02:43:11.605Z,98506.42
2024-05-09T02:45:40.045Z,98508.27
2024-05-09T02:48:10.119Z,98511.55
2024-05-09T02:50:39.434Z,98515.75
2024-05-09T02:53:08.118Z,98518.25
2024-05-09T02:55:34.982Z,98516.45
2024-05-09T02:58:01.611Z,98514.52
2024-05-09T03:00:36.851Z,98513.11
2024-05-09T03:03:07.199Z,98513.92
2024-05-09T03:05:34.827Z,98517.60
2024-05-09T03:08:01.667Z,98515.66
2024-05-09T03:10:29.075Z,98519.77
2024-05-09T03:13:08.640Z,98527.68
2024-05-09T03:15:35.591Z,98526.87
2024-05-09T03:18:03.498Z,98521.78
2024-05-09T03:20:34.326Z,98522.92
2024-05-09T03:23:03.372Z,98523.30
2024-05-09T03:25:30.358Z,98524.77
2024-05-09T03:27:56.927Z,98525.48
2024-05-09T03:30:30.988Z,98525.59
2024-05-09T03:33:14.140Z,98529.85
2024-05-09T03:35:42.982Z,98528.48
2024-05-09T03:38:09.690Z,98529.80
2024-05-09T03:40:43.146Z,98530.56
2024-05-09T03:43:09.783Z,98531.43
2024-05-09T03:45:36.397Z,98531.84
2024-05-09T03:48:03.095Z,98526.55
2024-05-09T03:50:34.020Z,98529.08
2024-05-09T03:53:02.543Z,98528.77
2024-05-09T03:55:29.164Z,98526.73
2024-05-09T03:57:55.914Z,98527.52
2024-05-09T04:00:30.959Z,98522.85
2024-05-09T04:03:05.498Z,98521.94
2024-05-09T04:05:33.436Z,98523.65
2024-05-09T04:08:01.191Z,98526.89
2024-05-09T04:10:32.923Z,98526.91
2024-05-09T04:13:01.939Z,98531.25
2024-05-09T04:15:28.791Z,98529.20
2024-05-09T04:17:55.528Z,98532.04
2024-05-09T04:20:33.337Z,98535.84
2024-05-09T04:23:05.692Z,98539.38
2024-05-09T04:25:32.485Z,98534.94
2024-05-09T04:27:59.106Z,98535.16
2024-05-09T04:30:34.014Z,98538.49
2024-05-09T04:33:05.683Z,98541.94
2024-05-09T04:35:32.616Z,98543.19
2024-05-09T04:37:59.227Z,98544.41
2024-05-09T04:40:33.003Z,98545.11
2024-05-09T04:43:03.923Z,98546.36
2024-05-09T04:45:30.566Z,98543.26
2024-05-09T04:47:57.491Z,98544.93
2024-05-09T04:50:33.553Z,98545.64
2024-05-09T04:53:05.829Z,98547.92
2024-05-09T04:55:35.486Z,98551.09
2024-05-09T04:58:08.044Z,98550.90
2024-05-09T05:00:37.204Z,98554.04
2024-05-09T05:03:08.309Z,98554.92
2024-05-09T05:05:39.871Z,98556.27
2024-05-09T05:08:17.737Z,98551.55
2024-05-09T05:10:46.256Z,98557.34
2024-05-09T05:13:14.076Z,98557.87
2024-05-09T05:15:40.895Z,98557.98
2024-05-09T05:18:07.967Z,98560.52
2024-05-09T05:20:34.905Z,98559.73
2024-05-09T05:23:01.557Z,98563.47
2024-05-09T05:25:28.082Z,98564.02
2024-05-09T05:27:54.731Z,98570.02
2024-05-09T05:30:28.703Z,98568.46
2024-05-09T05:32:59.834Z,98570.63
2024-05-09T05:35:26.946Z,98565.54
2024-05-09T05:37:54.354Z,98566.92
2024-05-09T05:40:28.227Z,98568.91
2024-05-09T05:43:03.791Z,98567.83
2024-05-09T05:45:30.456Z,98570.96
2024-05-09T05:47:57.436Z,98575.39
2024-05-09T05:50:32.263Z,98573.09
2024-05-09T05:53:05.435Z,98576.73
2024-05-09T05:55:32.418Z,98581.59
2024-05-09T05:58:01.310Z,98579.33
2024-05-09T06:00:34.461Z,98583.79
2024-05-09T06:03:04.964Z,98583.30
2024-05-09T06:05:32.714Z,98581.80
2024-05-09T06:07:59.607Z,98580.09
2024-05-09T06:10:34.601Z,98582.97
2024-05-09T06:13:05.234Z,98575.03
2024-05-09T06:15:31.724Z,98576.46
2024-05-09T06:17:58.584Z,98572.80
2024-05-09T06:20:34.583Z,98573.02
2024-05-09T06:23:07.689Z,98574.15
2024-05-09T06:25:35.431Z,98570.18
2024-05-09T06:28:02.709Z,98571.00
2024-05-09T06:30:37.832Z,98569.59
2024-05-09T06:33:08.854Z,98570.14
2024-05-09T06:35:36.508Z,98566.61
2024-05-09T06:38:03.650Z,98565.18
2024-05-09T06:40:36.897Z,98561.98
2024-05-09T06:43:17.403Z,98563.16
2024-05-09T06:45:50.405Z,98563.81
2024-05-09T06:48:20.875Z,98562.76
2024-05-09T06:50:48.489Z,98562.33
2024-05-09T06:53:16.219Z,98558.75
2024-05-09T06:55:43.047Z,98554.45
2024-05-09T06:58:09.795Z,98556.37
2024-05-09T07:00:39.901Z,98558.94
2024-05-09T07:03:15.339Z,98556.75
2024-05-09T07:05:45.060Z,98558.80
2024-05-09T07:08:13.254Z,98559.27
2024-05-09T07:10:40.888Z,98558.79
2024-05-09T07:13:12.466Z,98559.84
2024-05-09T07:15:40.155Z,98554.83
2024-05-09T07:18:18.003Z,98557.11
2024-05-09T07:20:46.594Z,98557.11
2024-05-09T07:23:13.904Z,98557.66
2024-05-09T07:25:41.745Z,98557.79
2024-05-09T07:28:16.518Z,98562.45
2024-05-09T07:30:44.103Z,98560.74
2024-05-09T07:33:28.894Z,98562.77
2024-05-09T07:35:56.313Z,98558.08
2024-05-09T07:38:22.811Z,98559.76
2024-05-09T07:40:49.543Z,98560.23
2024-05-09T07:43:16.670Z,98561.18
2024-05-09T07:45:51.712Z,98558.16
2024-05-09T07:52:37.734Z,98553.35
2024-05-09T07:53:46.970Z,98557.25
2024-05-09T07:58:42.962Z,98556.70
2024-05-09T08:01:10.010Z,98554.59
2024-05-09T08:03:37.443Z,98559.02
2024-05-09T08:06:04.366Z,98556.07
2024-05-09T08:08:30.823Z,98555.29
2024-05-09T08:10:57.264Z,98550.36
2024-05-09T08:13:23.798Z,98548.21
2024-05-09T08:15:50.746Z,98545.78
2024-05-09T08:18:17.826Z,98543.48
2024-05-09T08:20:48.182Z,98542.56
2024-05-09T08:23:14.831Z,98543.07
2024-05-09T08:25:41.390Z,98538.54
2024-05-09T08:28:07.972Z,98541.65
2024-05-09T08:30:37.579Z,98545.73
2024-05-09T08:33:06.286Z,98546.11
2024-05-09T08:35:34.433Z,98542.29
2024-05-09T08:38:06.071Z,98545.73
2024-05-09T08:40:36.181Z,98550.41
2024-05-09T08:43:10.498Z,98549.48
2024-05-09T08:45:39.599Z,98545.84
2024-05-09T08:48:07.678Z,98548.20
2024-05-09T08:50:40.172Z,98545.23
2024-05-09T08:53:08.141Z,98548.16
2024-05-09T08:55:37.386Z,98551.77
2024-05-09T08:58:06.659Z,98547.57
2024-05-09T09:00:37.077Z,98547.15
2024-05-09T09:03:08.474Z,98556.94
2024-05-09T09:05:38.676Z,98552.27
2024-05-09T09:08:07.466Z,98554.86
2024-05-09T09:10:34.456Z,98546.82
2024-05-09T09:13:01.203Z,98548.80
2024-05-09T09:15:27.851Z,98549.69
2024-05-09T09:17:59.714Z,98548.00
2024-05-09T09:20:36.446Z,98546.98
2024-05-09T09:23:04.210Z,98551.46
2024-05-09T09:25:31.153Z,98552.05
2024-05-09T09:27:58.230Z,98547.39
2024-05-09T09:30:36.154Z,98554.02
2024-05-09T09:33:13.489Z,98553.83
2024-05-09T09:35:42.240Z,98553.20
2024-05-09T09:38:09.280Z,98555.17
2024-05-09T09:40:41.082Z,98552.15
2024-05-09T09:43:18.001Z,98546.27
2024-05-09T09:45:49.103Z,98547.83
2024-05-09T09:48:16.209Z,98549.08
2024-05-09T09:50:43.378Z,98545.45
2024-05-09T09:53:11.519Z,98550.67
2024-05-09T09:55:39.463Z,98546.09
2024-05-09T09:58:08.604Z,98546.40
2024-05-09T10:00:37.655Z,98543.09
2024-05-09T10:03:04.650Z,98540.40
2024-05-09T10:05:32.895Z,98540.64
2024-05-09T10:08:07.554Z,98543.04
2024-05-09T10:10:35.549Z,98539.70
2024-05-09T10:13:03.590Z,98541.55
2024-05-09T10:15:44.906Z,98540.02
2024-05-09T10:18:11.692Z,98538.67
2024-05-09T10:20:41.616Z,98538.85
2024-05-09T10:23:28.244Z,98536.91
2024-05-09T10:25:59.476Z,98531.05
2024-05-09T10:28:31.182Z,98535.98
2024-05-09T10:31:11.837Z,98537.52
2024-05-09T10:33:45.368Z,98531.80
2024-05-09T10:36:20.733Z,98533.02
2024-05-09T10:38:51.873Z,98531.65
2024-05-09T10:41:19.503Z,98531.02
2024-05-09T10:43:46.819Z,98529.95
2024-05-09T10:46:13.598Z,98529.34
2024-05-09T10:48:42.133Z,98523.64
2024-05-09T10:51:10.212Z,98522.16
2024-05-09T10:53:44.500Z,98518.77
2024-05-09T10:56:13.833Z,98516.98
2024-05-09T10:58:41.417Z,98516.01
2024-05-09T11:01:09.201Z,98514.90
2024-05-09T11:03:37.091Z,98516.20
2024-05-09T11:06:05.458Z,98511.20
2024-05-09T11:08:34.176Z,98506.30
2024-05-09T11:11:01.971Z,98505.10
2024-05-09T11:13:34.134Z,98504.69
2024-05-09T11:16:01.635Z,98507.34
2024-05-09T11:18:33.251Z,98503.29
2024-05-09T11:21:02.793Z,98503.84
2024-05-09T11:23:29.533Z,98506.34
2024-05-09T11:25:59.057Z,98508.65
2024-05-09T11:28:27.762Z,98501.44
2024-05-09T11:31:04.911Z,98502.06
2024-05-09T11:33:31.551Z,98499.23
2024-05-09T11:35:58.158Z,98502.77
2024-05-09T11:38:24.704Z,98501.48
2024-05-09T11:40:51.541Z,98500.95
2024-05-09T11:43:18.305Z,98499.89
2024-05-09T11:45:45.213Z,98501.73
2024-05-09T11:48:12.147Z,98498.41
2024-05-09T11:50:39.124Z,98499.54
2024-05-09T11:53:05.694Z,98497.80
2024-05-09T11:55:32.280Z,98496.88
2024-05-09T11:57:58.991Z,98487.52
2024-05-09T12:00:33.870Z,98480.34
2024-05-09T12:03:04.013Z,98480.92
2024-05-09T12:05:31.080Z,98483.39
2024-05-09T12:07:57.726Z,98478.94
2024-05-09T12:10:32.538Z,98480.96
2024-05-09T12:13:04.206Z,98479.06
2024-05-09T12:15:32.499Z,98479.43
2024-05-09T12:18:02.553Z,98471.09
2024-05-09T12:20:36.614Z,98466.55
2024-05-09T12:23:07.442Z,98469.46
2024-05-09T12:25:35.084Z,98470.16
2024-05-09T12:28:01.811Z,98471.66
2024-05-09T12:30:36.100Z,98466.61
2024-05-09T12:33:07.693Z,98466.09
2024-05-09T12:35:35.028Z,98464.19
2024-05-09T12:38:02.637Z,98463.61
2024-05-09T12:40:35.836Z,98461.80
2024-05-09T12:43:09.579Z,98465.05
2024-05-09T12:45:37.921Z,98467.59
2024-05-09T12:48:06.000Z,98463.51
2024-05-09T12:50:35.500Z,98456.45
2024-05-09T12:53:03.263Z,98451.93
2024-05-09T12:55:40.816Z,98447.90
2024-05-09T12:58:16.403Z,98444.99
2024-05-09T13:00:43.580Z,98443.39
2024-05-09T13:03:10.312Z,98438.32
2024-05-09T13:05:37.070Z,98435.83
2024-05-09T13:08:04.164Z,98437.20
2024-05-09T13:10:32.842Z,98436.84
2024-05-09T13:13:01.031Z,98431.98
2024-05-09T13:15:29.886Z,98434.86
2024-05-09T13:17:59.453Z,98428.98
2024-05-09T13:20:33.087Z,98426.45
2024-05-09T13:23:06.948Z,98429.05
2024-05-09T13:25:35.893Z,98423.36
2024-05-09T13:28:03.522Z,98427.98
2024-05-09T13:30:38.647Z,98426.44
2024-05-09T13:33:12.610Z,98424.02
2024-05-09T13:35:47.698Z,98420.85
2024-05-09T13:38:19.180Z,98419.77
2024-05-09T13:40:46.736Z,98416.88
2024-05-09T13:43:13.609Z,98414.19
2024-05-09T13:45:40.627Z,98410.54
2024-05-09T13:48:07.539Z,98410.18
2024-05-09T13:50:36.552Z,98404.56
2024-05-09T13:53:06.431Z,98401.57
2024-05-09T13:55:36.651Z,98400.94
2024-05-09T13:58:03.617Z,98394.41
2024-05-09T14:00:42.184Z,98392.02
2024-05-09T14:03:15.514Z,98392.45
2024-05-09T14:05:43.912Z,98392.69
2024-05-09T14:08:11.014Z,98383.73
2024-05-09T14:10:38.380Z,98383.52
2024-05-09T14:13:05.475Z,98382.12
2024-05-09T14:15:32.066Z,98384.09
2024-05-09T14:17:58.552Z,98379.08
2024-05-09T14:20:31.053Z,98379.27
2024-05-09T14:22:59.974Z,98376.85
2024-05-09T14:25:30.474Z,98375.31
2024-05-09T14:27:57.527Z,98373.71
2024-05-09T14:30:31.233Z,98373.20
2024-05-09T14:33:05.018Z,98374.48
2024-05-09T14:35:32.256Z,98374.80
2024-05-09T14:38:00.014Z,98375.90
2024-05-09T14:40:37.047Z,98371.42
2024-05-09T14:43:12.965Z,98371.90
2024-05-09T14:45:40.409Z,98373.70
2024-05-09T14:48:07.648Z,98368.63
2024-05-09T14:50:37.930Z,98366.02
2024-05-09T14:53:07.535Z,98363.56
2024-05-09T14:55:37.022Z,98363.17
2024-05-09T14:58:08.384Z,98360.40
2024-05-09T15:00:40.354Z,98356.97
2024-05-09T15:03:09.988Z,98354.48
2024-05-09T15:05:36.452Z,98354.29
2024-05-09T15:08:06.545Z,98355.61
2024-05-09T15:10:36.121Z,98353.80
2024-05-09T15:13:04.578Z,98350.42
2024-05-09T15:15:31.673Z,98349.85
2024-05-09T15:17:58.972Z,98346.91
2024-05-09T15:20:33.108Z,98346.17
2024-05-09T15:23:03.971Z,98345.02
2024-05-09T15:25:32.741Z,98340.42
2024-05-09T15:27:59.428Z,98344.98
2024-05-09T15:32:55.548Z,98340.96
2024-05-09T15:35:22.110Z,98343.33
2024-05-09T15:37:49.183Z,98347.00
2024-05-09T15:40:25.980Z,98345.60
2024-05-09T15:43:01.723Z,98343.91
2024-05-09T15:45:28.486Z,98344.61
2024-05-09T15:47:56.210Z,98340.55
2024-05-09T15:50:32.683Z,98336.14
2024-05-09T15:53:05.309Z,98335.00
2024-05-09T15:55:31.752Z,98333.89
2024-05-09T15:58:02.782Z,98329.98
2024-05-09T16:00:37.147Z,98327.84
2024-05-09T16:03:08.495Z,98327.85
2024-05-09T16:05:35.889Z,98327.42
2024-05-09T16:08:03.573Z,98333.20
2024-05-09T16:10:32.977Z,98329.54
2024-05-09T16:13:01.475Z,98329.16
2024-05-09T16:15:28.483Z,98328.95
2024-05-09T16:17:55.752Z,98325.13
2024-05-09T16:20:34.005Z,98326.12
2024-05-09T16:23:06.937Z,98332.67
2024-05-09T16:25:33.614Z,98329.55
2024-05-09T16:28:00.657Z,98325.48
2024-05-09T16:30:34.203Z,98324.67
2024-05-09T16:33:03.760Z,98329.61
2024-05-09T16:35:32.057Z,98332.39
2024-05-09T16:38:01.785Z,98326.75
2024-05-09T16:40:36.472Z,98326.65
2024-05-09T16:43:09.551Z,98328.69
2024-05-09T16:45:38.733Z,98325.09
2024-05-09T16:48:07.166Z,98328.04
2024-05-09T16:50:35.678Z,98325.71
2024-05-09T16:53:04.494Z,98325.96
2024-05-09T16:55:31.929Z,98323.73
2024-05-09T16:57:58.775Z,98325.80
2024-05-09T17:00:36.068Z,98327.09
2024-05-09T17:03:08.689Z,98327.30
2024-05-09T17:05:36.281Z,98327.33
2024-05-09T17:08:04.156Z,98328.34
2024-05-09T17:10:33.774Z,98327.81
2024-05-09T17:13:03.622Z,98320.70
2024-05-09T17:15:31.815Z,98324.49
2024-05-09T17:17:58.902Z,98325.85
2024-05-09T17:20:32.424Z,98324.28
2024-05-09T17:23:03.048Z,98324.67
2024-05-09T17:25:29.750Z,98323.70
2024-05-09T17:27:57.249Z,98324.11
2024-05-09T17:30:32.075Z,98326.86
2024-05-09T17:33:03.291Z,98326.80
2024-05-09T17:35:31.037Z,98326.17
2024-05-09T17:37:57.874Z,98324.95
2024-05-09T17:40:31.150Z,98324.94
2024-05-09T17:43:02.150Z,98325.52
2024-05-09T17:45:28.864Z,98324.75
2024-05-09T17:47:55.792Z,98328.16
2024-05-09T17:50:30.302Z,98326.46
2024-05-09T17:53:01.750Z,98330.17
2024-05-09T17:55:28.957Z,98330.80
2024-05-09T17:57:56.076Z,98336.00
2024-05-09T18:00:33.104Z,98335.05
2024-05-09T18:03:05.334Z,98336.27
2024-05-09T18:05:32.279Z,98336.85
2024-05-09T18:07:59.099Z,98341.73
2024-05-09T18:10:32.961Z,98344.56
2024-05-09T18:13:04.147Z,98345.23
2024-05-09T18:15:30.840Z,98344.39
2024-05-09T18:17:57.584Z,98347.89
2024-05-09T18:20:33.157Z,98347.98
2024-05-09T18:23:07.997Z,98353.48
2024-05-09T18:25:34.646Z,98358.02
2024-05-09T18:28:02.297Z,98357.71
2024-05-09T18:30:34.414Z,98364.35
2024-05-09T18:33:04.954Z,98364.92
2024-05-09T18:35:32.743Z,98366.83
2024-05-09T18:37:59.501Z,98375.30
2024-05-09T18:40:32.959Z,98378.29
2024-05-09T18:43:06.858Z,98383.20
2024-05-09T18:45:36.608Z,98384.57
2024-05-09T18:48:03.955Z,98388.48
2024-05-09T18:50:35.835Z,98390.27
2024-05-09T18:53:05.731Z,98392.54
2024-05-09T18:55:32.567Z,98397.39
2024-05-09T18:57:59.409Z,98394.89
2024-05-09T19:00:34.114Z,98396.08
2024-05-09T19:03:06.392Z,98400.79
2024-05-09T19:05:35.030Z,98401.19
2024-05-09T19:08:02.540Z,98402.41
2024-05-09T19:10:34.066Z,98403.64
2024-05-09T19:13:05.432Z,98404.77
2024-05-09T19:15:37.535Z,98407.02
2024-05-09T19:18:05.336Z,98410.02
2024-05-09T19:20:34.804Z,98412.00
2024-05-09T19:23:03.890Z,98415.70
2024-05-09T19:25:30.604Z,98413.02
2024-05-09T19:27:57.292Z,98411.52
2024-05-09T19:30:30.556Z,98413.41
2024-05-09T19:33:05.430Z,98412.28
2024-05-09T19:35:32.100Z,98421.10
2024-05-09T19:37:58.745Z,98421.71
2024-05-09T19:40:31.253Z,98422.80
2024-05-09T19:43:04.085Z,98417.74
2024-05-09T19:45:31.421Z,98419.17
2024-05-09T19:47:59.127Z,98422.46
2024-05-09T19:50:35.564Z,98422.84
2024-05-09T19:53:07.940Z,98427.18
2024-05-09T19:55:34.504Z,98426.16
2024-05-09T19:58:05.664Z,98429.55
2024-05-09T20:00:36.283Z,98428.61
2024-05-09T20:03:06.243Z,98429.06
2024-05-09T20:05:33.573Z,98427.98
2024-05-09T20:08:00.644Z,98425.86
2024-05-09T20:10:32.556Z,98428.91
2024-05-09T20:13:01.654Z,98428.15
2024-05-09T20:15:28.346Z,98430.13
2024-05-09T20:17:55.199Z,98432.16
2024-05-09T20:22:51.844Z,98433.98
2024-05-09T20:25:18.996Z,98435.10
2024-05-09T20:27:45.618Z,98438.41
2024-05-09T20:30:16.993Z,98438.48
2024-05-09T20:32:48.224Z,98435.24
2024-05-09T20:35:14.706Z,98434.86
2024-05-09T20:37:41.364Z,98436.30
2024-05-09T20:40:12.266Z,98435.59
2024-05-09T20:42:44.285Z,98435.20
2024-05-09T20:45:10.754Z,98431.60
2024-05-09T20:47:37.756Z,98432.55
2024-05-09T20:50:07.507Z,98430.70
2024-05-09T20:52:35.810Z,98428.40
2024-05-09T20:55:02.998Z,98427.80
2024-05-09T20:57:30.136Z,98424.70
2024-05-09T20:59:56.660Z,98424.13
2024-05-09T21:02:23.347Z,98422.95
2024-05-09T21:04:50.403Z,98424.44
2024-05-09T21:07:17.280Z,98423.89
2024-05-09T21:09:43.812Z,98421.92
2024-05-09T21:12:10.345Z,98423.54
2024-05-09T21:14:36.918Z,98425.48
2024-05-09T21:17:03.793Z,98429.08
2024-05-09T21:19:30.266Z,98431.20
2024-05-09T21:21:56.797Z,98428.89
2024-05-09T21:24:23.502Z,98432.96
2024-05-09T21:26:49.979Z,98428.42
2024-05-09T21:29:16.444Z,98427.64
2024-05-09T21:31:43.006Z,98430.09
2024-05-09T21:34:09.529Z,98429.27
2024-05-09T21:36:36.304Z,98425.55
2024-05-09T21:39:02.832Z,98429.32
2024-05-09T21:41:29.302Z,98431.55
2024-05-09T21:43:55.778Z,98432.02
2024-05-09T21:46:22.563Z,98431.14
2024-05-09T21:48:49.294Z,98429.92
2024-05-09T21:51:15.807Z,98431.81
2024-05-09T21:53:42.343Z,98433.52
2024-05-09T21:56:09.050Z,98435.80
2024-05-09T21:58:35.554Z,98436.72
2024-05-09T22:01:02.153Z,98436.28
2024-05-09T22:03:29.110Z,98434.83
2024-05-09T22:05:55.966Z,98431.43
2024-05-09T22:08:22.777Z,98431.85
2024-05-09T22:10:49.718Z,98429.71
2024-05-09T22:13:17.062Z,98425.77
2024-05-09T22:15:43.690Z,98426.33
2024-05-09T22:18:11.187Z,98423.77
2024-05-09T22:20:39.923Z,98422.83
2024-05-09T22:23:07.553Z,98425.02
2024-05-09T22:25:34.679Z,98424.85
2024-05-09T22:28:02.307Z,98423.58
2024-05-09T22:36:43.854Z,98419.89
2024-05-09T22:39:10.491Z,98424.23
2024-05-09T22:41:39.759Z,98421.73
2024-05-09T22:44:06.408Z,98425.11
2024-05-09T22:46:32.993Z,98423.67
2024-05-09T22:48:59.724Z,98426.72
2024-05-09T22:51:26.426Z,98429.50
2024-05-09T22:53:52.977Z,98427.17
2024-05-09T22:56:26.757Z,98425.46
2024-05-09T22:58:53.984Z,98424.95
2024-05-09T23:01:21.874Z,98423.91
2024-05-09T23:07:32.579Z,98418.53
2024-05-09T23:09:59.507Z,98413.55
2024-05-09T23:12:26.138Z,98410.91
2024-05-09T23:14:52.684Z,98411.73
2024-05-09T23:17:19.466Z,98411.98
2024-05-09T23:19:46.119Z,98412.20
2024-05-09T23:22:12.742Z,98408.92
2024-05-09T23:24:39.462Z,98409.69
2024-05-09T23:27:06.186Z,98407.33
2024-05-09T23:29:32.836Z,98404.98
2024-05-09T23:31:59.399Z,98407.20
2024-05-09T23:34:29.886Z,98406.42
2024-05-09T23:36:56.643Z,98407.58
2024-05-09T23:39:23.456Z,98405.20
2024-05-09T23:41:50.006Z,98405.20
2024-05-09T23:44:16.706Z,98398.84
2024-05-09T23:46:43.337Z,98400.98
2024-05-09T23:49:10.000Z,98398.19
2024-05-09T23:51:36.711Z,98394.05
2024-05-09T23:54:03.443Z,98396.24
2024-05-09T23:56:31.558Z,98394.73
2024-05-09T23:58:58.210Z,98389.89
